.
WxDataArchive / Data Records for 2010-12-02
2010-12-01 December 2010 2010-12-03

Data Records for Thursday, 02 December 2010

Time	Temp	Chill	HIndex	Humid	Dewpt	 Wind 	HiWind	WindDir	Rain 	Barom 
-----	----	-----	------	-----	-----	------	------	-------	-----	----- 
00:00	23.6	23.6	23.6	72	15.9	2	5	270	0.00	30.095 
00:05	23.6	23.6	23.6	72	15.9	3	9	248	0.00	30.095 
00:10	23.6	23.6	23.6	73	16.2	2	5	248	0.00	30.095 
00:15	23.6	23.6	23.6	73	16.2	1	6	270	0.00	30.098 
00:20	23.6	23.6	23.6	73	16.2	2	4	248	0.00	30.098 
00:25	23.6	23.6	23.6	73	16.2	2	5	270	0.00	30.098 
00:30	23.6	23.6	23.6	74	16.6	2	5	248	0.00	30.099 
00:35	23.6	23.6	23.6	75	16.9	2	4	248	0.00	30.099 
00:40	23.6	23.6	23.6	75	16.9	2	5	248	0.00	30.099 
00:45	23.6	23.6	23.6	75	16.9	2	5	248	0.00	30.099 
00:50	23.6	23.6	23.6	76	17.2	1	6	248	0.00	30.099 
00:55	23.6	23.6	23.6	76	17.2	2	6	248	0.00	30.099 
01:00	23.6	23.6	23.6	76	17.2	2	4	248	0.00	30.099 
01:05	23.5	23.5	23.5	76	17.1	1	4	248	0.00	30.099 
01:10	23.5	23.5	23.5	76	17.1	1	5	225	0.00	30.099 
01:15	23.5	23.5	23.5	75	16.8	2	7	248	0.00	30.100 
01:20	23.5	23.5	23.5	74	16.5	3	10	248	0.00	30.100 
01:25	23.5	23.5	23.5	74	16.5	3	9	248	0.00	30.100 
01:30	23.5	23.5	23.5	74	16.5	3	10	248	0.00	30.102 
01:35	23.5	23.5	23.5	74	16.5	2	5	248	0.00	30.102 
01:40	23.5	23.5	23.5	74	16.5	3	6	248	0.00	30.102 
01:45	23.5	23.5	23.5	74	16.5	3	7	248	0.00	30.101 
01:50	23.5	23.5	23.5	74	16.5	1	4	270	0.00	30.101 
01:55	23.5	23.5	23.5	74	16.5	1	3	248	0.00	30.101 
02:00	23.5	23.5	23.5	75	16.8	2	4	248	0.00	30.101 
02:05	23.5	23.5	23.5	75	16.8	2	5	248	0.00	30.101 
02:10	23.5	23.5	23.5	75	16.8	2	4	248	0.00	30.101 
02:15	23.5	23.5	23.5	75	16.8	1	4	248	0.00	30.102 
02:20	23.5	23.5	23.5	76	17.1	1	2	248	0.00	30.102 
02:25	23.5	23.5	23.5	76	17.1	2	5	248	0.00	30.102 
02:30	23.5	23.5	23.5	76	17.1	1	4	270	0.00	30.112 
02:35	23.5	23.5	23.5	76	17.1	2	6	248	0.00	30.112 
02:40	23.5	23.5	23.5	76	17.1	1	4	248	0.00	30.112 
02:45	23.5	23.5	23.5	76	17.1	2	7	248	0.00	30.117 
02:50	23.5	23.5	23.5	76	17.1	3	6	248	0.00	30.117 
02:55	23.5	23.5	23.5	76	17.1	2	5	248	0.00	30.117 
03:00	23.5	23.5	23.5	76	17.1	1	4	248	0.00	30.118 
03:05	23.5	23.5	23.5	76	17.1	2	7	248	0.00	30.118 
03:10	23.6	23.6	23.6	77	17.5	1	4	248	0.00	30.118 
03:15	23.6	23.6	23.6	77	17.5	1	3	248	0.00	30.120 
03:20	23.6	23.6	23.6	77	17.5	1	4	248	0.00	30.120 
03:25	23.6	23.6	23.6	77	17.5	0	3	248	0.00	30.120 
03:30	23.6	23.6	23.6	77	17.5	1	4	248	0.00	30.118 
03:35	23.6	23.6	23.6	77	17.5	1	4	248	0.00	30.118 
03:40	23.6	23.6	23.6	77	17.5	1	3	225	0.00	30.118 
03:45	23.6	23.6	23.6	77	17.5	1	3	225	0.00	30.118 
03:50	23.6	23.6	23.6	77	17.5	1	3	248	0.00	30.118 
03:55	23.6	23.6	23.6	77	17.5	1	5	248	0.00	30.118 
04:00	23.8	23.8	23.8	77	17.7	1	4	248	0.00	30.122 
04:05	23.8	23.8	23.8	77	17.7	1	4	248	0.00	30.122 
04:10	23.8	23.8	23.8	77	17.7	1	3	248	0.00	30.122 
04:15	23.8	23.8	23.8	77	17.7	1	3	248	0.00	30.123 
04:20	23.8	23.8	23.8	77	17.7	1	4	248	0.00	30.123 
04:25	23.8	23.8	23.8	78	18.0	1	4	248	0.00	30.123 
04:30	23.9	23.9	23.9	78	18.1	0	2	248	0.00	30.134 
04:35	23.9	23.9	23.9	78	18.1	0	3	248	0.00	30.134 
04:40	23.9	23.9	23.9	77	17.8	1	3	248	0.00	30.134 
04:45	23.9	23.9	23.9	77	17.8	1	4	248	0.00	30.136 
04:50	23.9	23.9	23.9	77	17.8	1	4	248	0.00	30.136 
04:55	23.9	23.9	23.9	77	17.8	0	2	248	0.00	30.136 
05:00	23.9	23.9	23.9	77	17.8	2	5	225	0.00	30.146 
05:05	23.8	23.8	23.8	76	17.4	2	6	248	0.00	30.146 
05:10	23.9	23.9	23.9	76	17.5	1	5	248	0.00	30.146 
05:15	23.9	23.9	23.9	76	17.5	1	3	248	0.00	30.148 
05:20	23.9	23.9	23.9	76	17.5	1	4	248	0.00	30.148 
05:25	23.9	23.9	23.9	76	17.5	1	3	248	0.00	30.148 
05:30	23.9	23.9	23.9	76	17.5	0	3	248	0.00	30.149 
05:35	23.9	23.9	23.9	76	17.5	1	3	248	0.00	30.149 
05:40	23.9	23.9	23.9	75	17.2	1	2	248	0.00	30.149 
05:45	23.9	23.9	23.9	75	17.2	2	5	248	0.00	30.152 
05:50	23.9	23.9	23.9	75	17.2	1	3	225	0.00	30.152 
05:55	23.9	23.9	23.9	75	17.2	1	4	248	0.00	30.152 
06:00	23.9	23.9	23.9	75	17.2	1	4	248	0.00	30.155 
06:05	23.9	23.9	23.9	75	17.2	2	5	225	0.00	30.155 
06:10	24.1	24.1	24.1	75	17.3	2	4	248	0.00	30.155 
06:15	24.1	24.1	24.1	75	17.3	1	3	248	0.00	30.165 
06:20	24.1	24.1	24.1	75	17.3	1	6	248	0.00	30.165 
06:25	24.1	24.1	24.1	75	17.3	1	3	248	0.00	30.165 
06:30	24.1	24.1	24.1	75	17.3	1	6	248	0.00	30.166 
06:35	24.1	24.1	24.1	75	17.3	2	5	248	0.00	30.166 
06:40	24.1	24.1	24.1	75	17.3	3	7	248	0.00	30.166 
06:45	24.1	24.1	24.1	75	17.3	2	5	248	0.00	30.167 
06:50	24.1	24.1	24.1	75	17.3	2	6	248	0.00	30.167 
06:55	24.1	24.1	24.1	75	17.3	2	4	248	0.00	30.167 
07:00	24.1	24.1	24.1	75	17.3	1	3	248	0.00	30.169 
07:05	24.1	24.1	24.1	75	17.3	2	5	248	0.00	30.169 
07:10	24.1	24.1	24.1	75	17.3	1	4	248	0.00	30.169 
07:15	24.1	24.1	24.1	75	17.3	1	3	248	0.00	30.163 
07:20	24.1	24.1	24.1	75	17.3	0	2	248	0.00	30.163 
07:25	24.1	24.1	24.1	75	17.3	1	3	248	0.00	30.163 
07:30	24.1	24.1	24.1	76	17.7	1	4	248	0.00	30.166 
07:35	24.1	24.1	24.1	76	17.7	1	4	248	0.00	30.166 
07:40	24.1	24.1	24.1	76	17.7	1	3	248	0.00	30.166 
07:45	24.1	24.1	24.1	76	17.7	2	7	248	0.00	30.168 
07:50	24.1	24.1	24.1	76	17.7	1	5	225	0.00	30.168 
07:55	24.1	24.1	24.1	76	17.7	0	3	225	0.00	30.168 
08:00	24.1	24.1	24.1	76	17.7	2	4	248	0.00	30.171 
08:05	24.1	24.1	24.1	76	17.7	2	4	248	0.00	30.171 
08:10	24.2	24.2	24.2	76	17.7	2	6	248	0.00	30.171 
08:15	24.2	24.2	24.2	76	17.7	1	4	248	0.00	30.173 
08:20	24.1	24.1	24.1	75	17.3	2	9	248	0.00	30.173 
08:25	24.1	24.1	24.1	75	17.3	2	5	225	0.00	30.173 
08:30	24.1	24.1	24.1	75	17.3	3	5	248	0.00	30.176 
08:35	24.1	24.1	24.1	76	17.7	3	9	248	0.00	30.176 
08:40	24.1	24.1	24.1	76	17.7	2	5	248	0.00	30.176 
08:45	23.9	23.9	23.9	76	17.5	1	5	248	0.00	30.180 
08:50	23.9	23.9	23.9	76	17.5	2	10	248	0.00	30.180 
08:55	23.9	23.9	23.9	76	17.5	3	10	248	0.00	30.180 
09:00	23.9	23.9	23.9	76	17.5	2	4	248	0.00	30.181 
09:05	23.9	23.9	23.9	76	17.5	1	4	248	0.00	30.181 
09:10	23.9	23.9	23.9	76	17.5	2	6	248	0.00	30.181 
09:15	23.8	23.8	23.8	76	17.4	2	4	248	0.00	30.180 
09:20	23.8	23.8	23.8	76	17.4	2	5	248	0.00	30.180 
09:25	23.9	23.9	23.9	76	17.5	1	3	248	0.00	30.180 
09:30	23.9	23.9	23.9	76	17.5	3	6	248	0.00	30.182 
09:35	23.8	18.6	23.8	75	17.1	4	10	248	0.00	30.182 
09:40	23.8	18.6	23.8	75	17.1	4	7	248	0.00	30.182 
09:45	23.8	23.8	23.8	76	17.4	2	4	248	0.00	30.188 
09:50	23.9	23.9	23.9	76	17.5	2	3	248	0.00	30.188 
09:55	24.1	24.1	24.1	76	17.7	2	5	248	0.00	30.188 
10:00	24.1	24.1	24.1	75	17.3	2	6	248	0.00	30.185 
10:05	24.2	24.2	24.2	75	17.4	2	5	248	0.00	30.185 
10:10	24.2	24.2	24.2	75	17.4	3	6	248	0.00	30.185 
10:15	24.4	24.4	24.4	74	17.3	3	6	248	0.00	30.187 
10:20	24.5	24.5	24.5	74	17.4	3	6	248	0.00	30.187 
10:25	24.7	24.7	24.7	74	17.6	3	5	248	0.00	30.187 
10:30	24.7	24.7	24.7	74	17.6	2	5	248	0.00	30.194 
10:35	25.0	25.0	25.0	74	17.9	2	6	248	0.00	30.194 
10:40	25.1	25.1	25.1	74	18.0	1	4	248	0.00	30.194 
10:45	25.3	25.3	25.3	74	18.2	2	5	248	0.00	30.195 
10:50	25.4	25.4	25.4	74	18.3	2	6	248	0.00	30.195 
10:55	25.6	25.6	25.6	74	18.5	1	4	248	0.00	30.195 
11:00	25.7	25.7	25.7	73	18.3	3	9	248	0.00	30.191 
11:05	25.6	25.6	25.6	73	18.2	3	6	270	0.00	30.191 
11:10	25.4	25.4	25.4	73	18.0	2	6	270	0.00	30.191 
11:15	25.4	25.4	25.4	74	18.3	2	5	248	0.00	30.189 
11:20	25.4	25.4	25.4	74	18.3	2	4	248	0.00	30.189 
11:25	25.6	25.6	25.6	74	18.5	1	4	248	0.00	30.189 
11:30	25.6	25.6	25.6	74	18.5	2	7	248	0.00	30.184 
11:35	25.6	25.6	25.6	73	18.2	2	9	248	0.00	30.184 
11:40	25.6	25.6	25.6	74	18.5	2	6	270	0.00	30.184 
11:45	25.6	25.6	25.6	74	18.5	2	6	248	0.00	30.184 
11:50	25.6	25.6	25.6	73	18.2	2	4	248	0.00	30.184 
11:55	25.6	25.6	25.6	73	18.2	2	6	248	0.00	30.184 
12:00	25.4	25.4	25.4	74	18.3	2	4	270	0.00	30.185 
12:05	25.4	25.4	25.4	74	18.3	3	5	270	0.00	30.185 
12:10	25.7	25.7	25.7	74	18.6	2	6	270	0.00	30.185 
12:15	25.8	25.8	25.8	74	18.7	2	6	248	0.00	30.180 
12:20	25.8	25.8	25.8	73	18.4	3	5	248	0.00	30.180 
12:25	26.0	26.0	26.0	74	18.9	2	7	225	0.00	30.180 
12:30	26.3	26.3	26.3	74	19.2	2	5	248	0.00	30.179 
12:35	26.3	26.3	26.3	73	18.8	3	5	248	0.00	30.179 
12:40	26.4	26.4	26.4	74	19.3	2	4	248	0.00	30.179 
12:45	26.6	26.6	26.6	73	19.1	3	7	248	0.00	30.173 
12:50	26.6	21.8	26.6	73	19.1	4	10	270	0.00	30.173 
12:55	26.7	26.7	26.7	73	19.2	2	6	270	0.00	30.173 
13:00	27.0	27.0	27.0	73	19.5	2	5	225	0.00	30.168 
13:05	27.3	27.3	27.3	72	19.5	3	5	270	0.00	30.168 
13:10	27.5	27.5	27.5	72	19.7	2	5	248	0.00	30.168 
13:15	27.6	27.6	27.6	72	19.8	3	6	248	0.00	30.166 
13:20	27.6	27.6	27.6	71	19.4	3	6	270	0.00	30.166 
13:25	27.6	27.6	27.6	71	19.4	3	7	248	0.00	30.166 
13:30	27.5	27.5	27.5	71	19.4	2	4	248	0.00	30.164 
13:35	27.5	27.5	27.5	72	19.7	2	6	225	0.00	30.164 
13:40	27.6	27.6	27.6	72	19.8	3	7	248	0.00	30.164 
13:45	27.8	27.8	27.8	71	19.6	3	9	248	0.00	30.161 
13:50	27.9	27.9	27.9	71	19.7	3	9	248	0.00	30.161 
13:55	28.2	28.2	28.2	71	20.0	2	7	248	0.00	30.161 
14:00	28.5	28.5	28.5	71	20.3	2	5	248	0.00	30.159 
14:05	28.7	28.7	28.7	71	20.5	2	5	248	0.00	30.159 
14:10	28.7	28.7	28.7	68	19.5	3	5	248	0.00	30.159 
14:15	28.8	28.8	28.8	69	19.9	2	5	248	0.00	30.155 
14:20	29.1	29.1	29.1	69	20.2	3	5	248	0.00	30.155 
14:25	29.1	29.1	29.1	68	19.9	3	6	270	0.00	30.155 
14:30	29.0	29.0	29.0	69	20.1	2	4	248	0.00	30.157 
14:35	28.8	28.8	28.8	69	19.9	1	3	248	0.00	30.157 
14:40	28.8	28.8	28.8	69	19.9	1	4	248	0.00	30.157 
14:45	28.5	28.5	28.5	69	19.6	2	4	248	0.00	30.159 
14:50	28.2	28.2	28.2	69	19.4	2	4	248	0.00	30.159 
14:55	28.2	28.2	28.2	69	19.4	2	5	248	0.00	30.159 
15:00	28.2	28.2	28.2	69	19.4	2	4	270	0.00	30.163 
15:05	28.4	28.4	28.4	69	19.5	2	5	248	0.00	30.163 
15:10	28.4	28.4	28.4	69	19.5	2	5	248	0.00	30.163 
15:15	28.5	28.5	28.5	69	19.6	2	4	248	0.00	30.167 
15:20	28.5	28.5	28.5	70	20.0	1	4	248	0.00	30.167 
15:25	28.7	28.7	28.7	70	20.2	2	4	270	0.00	30.167 
15:30	28.8	28.8	28.8	70	20.3	1	3	248	0.00	30.166 
15:35	28.7	28.7	28.7	70	20.2	1	4	248	0.00	30.166 
15:40	28.7	28.7	28.7	69	19.8	1	2	248	0.00	30.166 
15:45	28.5	28.5	28.5	69	19.6	1	3	248	0.00	30.172 
15:50	28.4	28.4	28.4	70	19.9	2	4	248	0.00	30.172 
15:55	28.4	28.4	28.4	70	19.9	1	3	248	0.00	30.172 
16:00	28.4	28.4	28.4	71	20.2	1	2	248	0.00	30.176 
16:05	28.4	28.4	28.4	70	19.9	1	3	248	0.00	30.176 
16:10	28.4	28.4	28.4	70	19.9	1	3	248	0.00	30.176 
16:15	28.4	28.4	28.4	70	19.9	1	3	248	0.00	30.177 
16:20	28.4	28.4	28.4	71	20.2	0	3	248	0.00	30.177 
16:25	28.2	28.2	28.2	71	20.0	1	3	270	0.00	30.177 
16:30	28.2	28.2	28.2	71	20.0	0	3	270	0.00	30.180 
16:35	28.2	28.2	28.2	71	20.0	0	2	270	0.00	30.180 
16:40	28.2	28.2	28.2	71	20.0	0	1	270	0.00	30.180 
16:45	28.1	28.1	28.1	71	19.9	0	2	270	0.00	30.178 
16:50	28.1	28.1	28.1	72	20.3	0	1	270	0.00	30.178 
16:55	28.1	28.1	28.1	72	20.3	0	2	270	0.00	30.178 
17:00	27.9	27.9	27.9	72	20.1	0	1	270	0.00	30.179 
17:05	27.8	27.8	27.8	72	20.0	0	2	270	0.00	30.179 
17:10	27.8	27.8	27.8	72	20.0	0	2	270	0.00	30.179 
17:15	27.6	27.6	27.6	72	19.8	0	2	270	0.00	30.188 
17:20	27.6	27.6	27.6	73	20.1	0	1	270	0.00	30.188 
17:25	27.5	27.5	27.5	73	20.0	0	1	270	0.00	30.188 
17:30	27.5	27.5	27.5	73	20.0	0	1	270	0.00	30.192 
17:35	27.5	27.5	27.5	73	20.0	0	0	---	0.00	30.192 
17:40	27.3	27.3	27.3	73	19.8	0	1	270	0.00	30.192 
17:45	27.3	27.3	27.3	74	20.1	0	1	270	0.00	30.197 
17:50	27.2	27.2	27.2	74	20.0	0	0	---	0.00	30.197 
17:55	27.2	27.2	27.2	74	20.0	0	0	---	0.00	30.197 
18:00	27.0	27.0	27.0	74	19.8	0	0	---	0.00	30.197 
18:05	27.0	27.0	27.0	75	20.2	0	0	---	0.00	30.197 
18:10	27.0	27.0	27.0	75	20.2	0	0	---	0.00	30.197 
18:15	27.0	27.0	27.0	75	20.2	0	1	270	0.00	30.200 
18:20	27.0	27.0	27.0	75	20.2	0	0	---	0.00	30.200 
18:25	27.0	27.0	27.0	75	20.2	0	0	---	0.00	30.200 
18:30	26.9	26.9	26.9	75	20.1	0	0	---	0.00	30.202 
18:35	26.9	26.9	26.9	75	20.1	0	0	---	0.00	30.202 
18:40	26.9	26.9	26.9	75	20.1	0	0	---	0.00	30.202 
18:45	26.9	26.9	26.9	75	20.1	0	1	270	0.00	30.207 
18:50	26.7	26.7	26.7	75	19.9	0	1	270	0.00	30.207 
18:55	26.7	26.7	26.7	75	19.9	0	1	270	0.00	30.207 
19:00	26.7	26.7	26.7	75	19.9	0	0	---	0.00	30.209 
19:05	26.6	26.6	26.6	75	19.8	0	0	---	0.00	30.209 
19:10	26.6	26.6	26.6	75	19.8	0	0	---	0.00	30.209 
19:15	26.6	26.6	26.6	75	19.8	0	1	270	0.00	30.209 
19:20	26.6	26.6	26.6	75	19.8	0	0	---	0.00	30.209 
19:25	26.6	26.6	26.6	75	19.8	0	0	---	0.00	30.209 
19:30	26.6	26.6	26.6	75	19.8	0	0	---	0.00	30.210 
19:35	26.6	26.6	26.6	76	20.1	0	0	---	0.00	30.210 
19:40	26.6	26.6	26.6	75	19.8	0	0	---	0.00	30.210 
19:45	26.6	26.6	26.6	75	19.8	0	0	---	0.00	30.214 
19:50	26.6	26.6	26.6	75	19.8	0	0	---	0.00	30.214 
19:55	26.6	26.6	26.6	76	20.1	0	0	---	0.00	30.214 
20:00	26.6	26.6	26.6	76	20.1	0	0	---	0.00	30.214 
20:05	26.6	26.6	26.6	75	19.8	0	0	---	0.00	30.214 
20:10	26.6	26.6	26.6	75	19.8	0	0	---	0.00	30.214 
20:15	26.6	26.6	26.6	75	19.8	0	0	---	0.00	30.212 
20:20	26.6	26.6	26.6	76	20.1	0	0	---	0.00	30.212 
20:25	26.4	26.4	26.4	76	19.9	0	0	---	0.00	30.212 
20:30	26.4	26.4	26.4	76	19.9	0	0	---	0.00	30.210 
20:35	26.4	26.4	26.4	76	19.9	0	0	---	0.00	30.210 
20:40	26.4	26.4	26.4	76	19.9	0	0	---	0.00	30.210 
20:45	26.3	26.3	26.3	76	19.8	0	0	---	0.00	30.209 
20:50	26.3	26.3	26.3	76	19.8	0	0	---	0.00	30.209 
20:55	26.3	26.3	26.3	76	19.8	0	0	---	0.00	30.209 
21:00	26.3	26.3	26.3	76	19.8	0	0	---	0.00	30.210 
21:05	26.1	26.1	26.1	77	19.9	0	0	---	0.00	30.210 
21:10	26.1	26.1	26.1	77	19.9	0	0	---	0.00	30.210 
21:15	26.1	26.1	26.1	77	19.9	0	0	---	0.00	30.211 
21:20	26.1	26.1	26.1	77	19.9	0	0	---	0.00	30.211 
21:25	26.1	26.1	26.1	77	19.9	0	0	---	0.00	30.211 
21:30	26.0	26.0	26.0	77	19.8	0	0	---	0.00	30.210 
21:35	26.0	26.0	26.0	77	19.8	0	0	---	0.00	30.210 
21:40	26.0	26.0	26.0	78	20.1	0	0	---	0.00	30.210 
21:45	26.0	26.0	26.0	78	20.1	0	0	---	0.00	30.209 
21:50	25.8	25.8	25.8	78	19.9	0	0	---	0.00	30.209 
21:55	25.8	25.8	25.8	78	19.9	0	0	---	0.00	30.209 
22:00	25.8	25.8	25.8	79	20.2	0	0	---	0.00	30.207 
22:05	25.8	25.8	25.8	79	20.2	0	0	---	0.00	30.207 
22:10	25.8	25.8	25.8	79	20.2	0	0	---	0.00	30.207 
22:15	26.0	26.0	26.0	79	20.4	0	0	---	0.00	30.201 
22:20	26.0	26.0	26.0	79	20.4	0	0	---	0.00	30.201 
22:25	26.0	26.0	26.0	79	20.4	0	0	---	0.00	30.201 
22:30	26.0	26.0	26.0	79	20.4	0	0	---	0.00	30.196 
22:35	26.0	26.0	26.0	80	20.7	0	0	---	0.00	30.196 
22:40	26.0	26.0	26.0	80	20.7	0	0	---	0.00	30.196 
22:45	26.1	26.1	26.1	80	20.8	0	0	---	0.00	30.200 
22:50	26.1	26.1	26.1	80	20.8	0	0	---	0.00	30.200 
22:55	26.3	26.3	26.3	80	21.0	0	0	---	0.00	30.200 
23:00	26.3	26.3	26.3	80	21.0	0	0	---	0.00	30.196 
23:05	26.3	26.3	26.3	80	21.0	0	0	---	0.00	30.196 
23:10	26.3	26.3	26.3	81	21.3	0	0	---	0.00	30.196 
23:15	26.3	26.3	26.3	81	21.3	0	0	---	0.00	30.197 
23:20	26.3	26.3	26.3	81	21.3	0	0	---	0.00	30.197 
23:25	26.3	26.3	26.3	81	21.3	0	0	---	0.00	30.197 
23:30	26.3	26.3	26.3	81	21.3	0	0	---	0.00	30.196 
23:35	26.3	26.3	26.3	81	21.3	0	0	---	0.00	30.196 
23:40	26.3	26.3	26.3	81	21.3	0	0	---	0.00	30.196 
23:45	26.4	26.4	26.4	81	21.4	0	0	---	0.00	30.195 
23:50	26.4	26.4	26.4	81	21.4	0	3	270	0.00	30.195 
23:55	26.7	26.7	26.7	81	21.7	0	4	270	0.00	30.195 

CoCoRaHS
IN-AL-39
A2 Web Hosting
Creative Commons License
GoDaddy
search engine by freefind advanced

loaded 2018-11-14 04:30:45 • last modified 2010-11-18 10:43:29
Privacy PolicyDisclaimer
• wx.awcolley.com is powered by PmWiki v.2002016 •
• all content (unless otherwise noted) © 2018 A W Colley